createdAt,value
2019-06-26T00:00:36.549Z,100453.59
2019-06-26T00:03:07.334Z,100448.86
2019-06-26T00:05:36.905Z,100461.21
2019-06-26T00:08:06.667Z,100451.22
2019-06-26T00:10:36.296Z,100462.02
2019-06-26T00:13:05.950Z,100465.22
2019-06-26T00:15:35.535Z,100468.36
2019-06-26T00:18:06.234Z,100462.60
2019-06-26T00:20:35.832Z,100464.89
2019-06-26T00:23:05.413Z,100468.42
2019-06-26T00:25:34.999Z,100481.45
2019-06-26T00:28:04.672Z,100474.66
2019-06-26T00:30:34.271Z,100463.58
2019-06-26T00:33:03.847Z,100466.72
2019-06-26T00:35:33.573Z,100471.50
2019-06-26T00:38:03.166Z,100471.47
2019-06-26T00:40:32.760Z,100475.97
2019-06-26T00:43:02.350Z,100476.80
2019-06-26T00:45:31.915Z,100472.50
2019-06-26T00:48:01.508Z,100479.03
2019-06-26T00:50:31.085Z,100480.58
2019-06-26T00:53:00.694Z,100480.97
2019-06-26T00:55:30.268Z,100480.63
2019-06-26T00:57:59.847Z,100475.64
2019-06-26T01:00:34.024Z,100475.64
2019-06-26T01:03:03.598Z,100474.52
2019-06-26T01:05:33.175Z,100474.42
2019-06-26T01:08:02.771Z,100475.83
2019-06-26T01:10:32.342Z,100486.30
2019-06-26T01:13:03.498Z,100479.02
2019-06-26T01:15:33.074Z,100476.84
2019-06-26T01:18:02.670Z,100488.89
2019-06-26T01:20:32.241Z,100484.77
2019-06-26T01:23:02.964Z,100484.30
2019-06-26T01:25:32.535Z,100480.08
2019-06-26T01:28:02.122Z,100481.28
2019-06-26T01:30:31.703Z,100481.14
2019-06-26T01:33:01.283Z,100480.05
2019-06-26T01:35:30.951Z,100477.02
2019-06-26T01:38:00.521Z,100480.87
2019-06-26T01:40:30.152Z,100478.78
2019-06-26T01:42:59.702Z,100488.11
2019-06-26T01:45:29.282Z,100480.87
2019-06-26T01:47:58.866Z,100482.61
2019-06-26T01:50:28.445Z,100483.17
2019-06-26T01:52:58.030Z,100477.13
2019-06-26T01:55:27.611Z,100484.72
2019-06-26T01:57:57.196Z,100481.78
2019-06-26T02:00:27.106Z,100475.34
2019-06-26T02:02:58.038Z,100483.20
2019-06-26T02:05:27.654Z,100478.84
2019-06-26T02:07:57.215Z,100479.34
2019-06-26T02:10:26.809Z,100473.52
2019-06-26T02:12:56.509Z,100478.66
2019-06-26T02:15:26.215Z,100478.20
2019-06-26T02:17:55.795Z,100480.03
2019-06-26T02:20:25.413Z,100479.03
2019-06-26T02:22:55.019Z,100482.97
2019-06-26T02:25:24.639Z,100481.47
2019-06-26T02:27:54.261Z,100489.80
2019-06-26T02:30:23.836Z,100492.98
2019-06-26T02:32:53.425Z,100489.39
2019-06-26T02:35:23.016Z,100498.35
2019-06-26T02:37:52.617Z,100489.33
2019-06-26T02:40:23.610Z,100499.73
2019-06-26T02:42:53.194Z,100496.09
2019-06-26T02:45:22.780Z,100493.97
2019-06-26T02:47:52.357Z,100491.12
2019-06-26T02:50:21.976Z,100492.06
2019-06-26T02:52:51.522Z,100501.22
2019-06-26T02:55:21.139Z,100503.78
2019-06-26T02:57:50.690Z,100503.23
2019-06-26T03:00:21.917Z,100509.38
2019-06-26T03:05:26.650Z,100494.21
2019-06-26T03:07:56.214Z,100495.68
2019-06-26T03:10:25.789Z,100494.52
2019-06-26T03:12:55.383Z,100493.99
2019-06-26T03:15:25.032Z,100494.80
2019-06-26T03:17:55.920Z,100497.70
2019-06-26T03:20:30.152Z,100499.92
2019-06-26T03:22:59.806Z,100498.34
2019-06-26T03:25:29.475Z,100507.80
2019-06-26T03:27:59.057Z,100507.18
2019-06-26T03:30:28.706Z,100509.50
2019-06-26T03:32:58.294Z,100520.98
2019-06-26T03:35:27.878Z,100514.41
2019-06-26T03:37:57.467Z,100520.56
2019-06-26T03:40:27.218Z,100522.25
2019-06-26T03:42:56.774Z,100522.26
2019-06-26T03:45:26.671Z,100524.83
2019-06-26T03:47:56.407Z,100530.77
2019-06-26T03:50:26.101Z,100527.85
2019-06-26T03:52:55.758Z,100531.62
2019-06-26T03:55:25.407Z,100528.81
2019-06-26T03:57:54.998Z,100530.77
2019-06-26T04:00:32.016Z,100535.97
2019-06-26T04:03:01.599Z,100536.31
2019-06-26T04:05:31.180Z,100538.83
2019-06-26T04:08:00.748Z,100543.13
2019-06-26T04:10:30.335Z,100538.53
2019-06-26T04:12:59.929Z,100537.27
2019-06-26T04:15:41.292Z,100543.52
2019-06-26T04:18:00.875Z,100549.39
2019-06-26T04:20:30.464Z,100547.13
2019-06-26T04:23:00.054Z,100551.60
2019-06-26T04:25:29.623Z,100551.09
2019-06-26T04:27:59.211Z,100554.91
2019-06-26T04:30:28.779Z,100554.05
2019-06-26T04:32:58.550Z,100554.91
2019-06-26T04:35:28.139Z,100556.28
2019-06-26T04:37:57.719Z,100551.82
2019-06-26T04:40:27.299Z,100558.84
2019-06-26T04:42:56.876Z,100557.37
2019-06-26T04:45:26.514Z,100562.25
2019-06-26T04:47:56.087Z,100563.72
2019-06-26T04:50:27.798Z,100560.30
2019-06-26T04:52:57.410Z,100565.97
2019-06-26T04:55:26.995Z,100560.44
2019-06-26T04:57:56.562Z,100561.70
2019-06-26T05:00:26.796Z,100567.77
2019-06-26T05:02:56.368Z,100569.05
2019-06-26T05:05:38.965Z,100566.08
2019-06-26T05:07:57.251Z,100581.38
2019-06-26T05:10:26.828Z,100583.41
2019-06-26T05:12:56.430Z,100581.59
2019-06-26T05:15:26.000Z,100576.27
2019-06-26T05:17:55.627Z,100582.14
2019-06-26T05:20:25.186Z,100583.16
2019-06-26T05:22:54.770Z,100587.46
2019-06-26T05:25:24.398Z,100586.24
2019-06-26T05:27:53.966Z,100588.07
2019-06-26T05:30:24.660Z,100588.27
2019-06-26T05:32:54.250Z,100590.80
2019-06-26T05:35:23.971Z,100585.98
2019-06-26T05:37:54.993Z,100590.38
2019-06-26T05:40:24.688Z,100600.92
2019-06-26T05:42:54.293Z,100592.45
2019-06-26T05:45:24.073Z,100608.09
2019-06-26T05:47:53.674Z,100599.83
2019-06-26T05:50:23.757Z,100602.52
2019-06-26T05:52:53.425Z,100602.16
2019-06-26T05:55:24.192Z,100595.48
2019-06-26T05:57:53.762Z,100605.03
2019-06-26T06:00:23.957Z,100610.27
2019-06-26T06:02:54.111Z,100608.83
2019-06-26T06:05:23.944Z,100611.62
2019-06-26T06:07:53.656Z,100613.69
2019-06-26T06:10:24.842Z,100614.39
2019-06-26T06:12:54.428Z,100611.23
2019-06-26T06:15:24.018Z,100626.28
2019-06-26T06:17:53.596Z,100619.98
2019-06-26T06:20:30.508Z,100626.05
2019-06-26T06:23:00.103Z,100622.05
2019-06-26T06:25:31.177Z,100624.16
2019-06-26T06:28:02.026Z,100621.28
2019-06-26T06:30:31.614Z,100624.28
2019-06-26T06:33:01.342Z,100629.86
2019-06-26T06:35:30.886Z,100625.02
2019-06-26T06:38:00.492Z,100622.90
2019-06-26T06:40:30.075Z,100625.02
2019-06-26T06:42:59.654Z,100614.52
2019-06-26T06:45:29.546Z,100622.90
2019-06-26T06:48:00.307Z,100623.87
2019-06-26T06:50:30.971Z,100626.30
2019-06-26T06:53:00.517Z,100635.55
2019-06-26T06:55:30.095Z,100633.41
2019-06-26T06:57:59.664Z,100637.77
2019-06-26T07:00:29.406Z,100636.59
2019-06-26T07:02:58.974Z,100649.34
2019-06-26T07:05:28.565Z,100653.56
2019-06-26T07:07:58.140Z,100657.93
2019-06-26T07:10:27.711Z,100658.17
2019-06-26T07:12:57.304Z,100655.53
2019-06-26T07:15:28.107Z,100650.19
2019-06-26T07:17:57.685Z,100658.32
2019-06-26T07:20:27.265Z,100656.99
2019-06-26T07:22:58.157Z,100651.55
2019-06-26T07:25:27.822Z,100656.17
2019-06-26T07:27:57.397Z,100657.87
2019-06-26T07:30:27.096Z,100665.63
2019-06-26T07:32:56.688Z,100669.17
2019-06-26T07:35:26.408Z,100657.63
2019-06-26T07:37:59.879Z,100669.87
2019-06-26T07:40:27.348Z,100658.93
2019-06-26T07:42:56.939Z,100667.19
2019-06-26T07:45:27.153Z,100672.28
2019-06-26T07:47:57.732Z,100673.61
2019-06-26T07:50:27.297Z,100672.13
2019-06-26T07:52:56.876Z,100669.33
2019-06-26T07:55:26.467Z,100678.82
2019-06-26T07:57:56.042Z,100675.02
2019-06-26T08:00:25.695Z,100673.22
2019-06-26T08:02:56.590Z,100677.79
2019-06-26T08:05:26.173Z,100683.74
2019-06-26T08:07:57.854Z,100677.18
2019-06-26T08:10:27.422Z,100684.34
2019-06-26T08:12:57.038Z,100682.85
2019-06-26T08:15:26.616Z,100689.17
2019-06-26T08:18:00.950Z,100684.17
2019-06-26T08:20:27.500Z,100686.55
2019-06-26T08:22:57.108Z,100687.41
2019-06-26T08:25:26.690Z,100685.53
2019-06-26T08:27:56.260Z,100688.58
2019-06-26T08:30:26.200Z,100702.67
2019-06-26T08:32:55.846Z,100696.95
2019-06-26T08:35:25.475Z,100698.27
2019-06-26T08:38:09.017Z,100700.22
2019-06-26T08:40:26.351Z,100693.36
2019-06-26T08:42:56.220Z,100696.03
2019-06-26T08:45:25.864Z,100700.42
2019-06-26T08:47:55.562Z,100689.56
2019-06-26T08:50:25.281Z,100690.39
2019-06-26T08:52:54.853Z,100700.30
2019-06-26T08:55:24.440Z,100691.67
2019-06-26T08:57:54.013Z,100687.94
2019-06-26T09:00:23.911Z,100692.75
2019-06-26T09:02:53.495Z,100689.62
2019-06-26T09:05:23.205Z,100687.66
2019-06-26T09:07:52.965Z,100692.75
2019-06-26T09:10:22.661Z,100697.75
2019-06-26T09:12:55.206Z,100693.33
2019-06-26T09:15:24.759Z,100688.41
2019-06-26T09:17:55.586Z,100683.50
2019-06-26T09:20:29.727Z,100682.11
2019-06-26T09:22:59.308Z,100684.94
2019-06-26T09:25:28.892Z,100686.95
2019-06-26T09:27:58.986Z,100682.28
2019-06-26T09:30:28.635Z,100694.48
2019-06-26T09:32:58.215Z,100685.17
2019-06-26T09:35:27.810Z,100689.14
2019-06-26T09:37:58.479Z,100681.22
2019-06-26T09:40:31.624Z,100682.62
2019-06-26T09:42:59.359Z,100679.53
2019-06-26T09:45:29.033Z,100680.52
2019-06-26T09:47:58.671Z,100683.78
2019-06-26T09:50:29.364Z,100684.03
2019-06-26T09:52:58.900Z,100675.14
2019-06-26T09:55:33.522Z,100677.28
2019-06-26T09:58:03.118Z,100678.42
2019-06-26T10:00:33.534Z,100677.28
2019-06-26T10:03:03.149Z,100670.80
2019-06-26T10:05:32.741Z,100668.09
2019-06-26T10:08:02.362Z,100675.84
2019-06-26T10:10:31.929Z,100667.76
2019-06-26T10:13:01.504Z,100677.22
2019-06-26T10:15:31.082Z,100675.36
2019-06-26T10:18:00.678Z,100669.42
2019-06-26T10:20:31.719Z,100667.73
2019-06-26T10:23:01.258Z,100668.40
2019-06-26T10:25:30.939Z,100671.52
2019-06-26T10:28:00.496Z,100673.20
2019-06-26T10:30:30.082Z,100672.34
2019-06-26T10:33:00.427Z,100669.36
2019-06-26T10:35:30.017Z,100676.64
2019-06-26T10:37:59.589Z,100661.51
2019-06-26T10:40:30.696Z,100664.58
2019-06-26T10:43:00.491Z,100662.69
2019-06-26T10:45:30.071Z,100666.81
2019-06-26T10:48:01.300Z,100663.69
2019-06-26T10:50:30.900Z,100664.20
2019-06-26T10:53:00.468Z,100665.65
2019-06-26T10:55:30.051Z,100656.38
2019-06-26T10:57:59.633Z,100660.70
2019-06-26T11:00:30.720Z,100655.14
2019-06-26T11:03:00.303Z,100660.39
2019-06-26T11:05:29.879Z,100656.49
2019-06-26T11:07:59.467Z,100658.59
2019-06-26T11:10:29.101Z,100650.05
2019-06-26T11:12:58.647Z,100648.98
2019-06-26T11:15:28.235Z,100652.73
2019-06-26T11:17:59.357Z,100640.42
2019-06-26T11:20:29.005Z,100637.36
2019-06-26T11:22:58.579Z,100636.41
2019-06-26T11:25:28.193Z,100636.75
2019-06-26T11:27:59.350Z,100633.73
2019-06-26T11:30:29.249Z,100637.00
2019-06-26T11:32:58.855Z,100639.45
2019-06-26T11:35:28.583Z,100641.96
2019-06-26T11:37:58.149Z,100637.47
2019-06-26T11:40:29.269Z,100630.39
2019-06-26T11:42:58.844Z,100631.19
2019-06-26T11:45:28.521Z,100632.84
2019-06-26T11:47:58.095Z,100628.67
2019-06-26T11:50:27.805Z,100619.47
2019-06-26T11:52:57.431Z,100622.43
2019-06-26T11:55:27.051Z,100622.17
2019-06-26T11:57:57.939Z,100619.55
2019-06-26T12:00:29.043Z,100620.94
2019-06-26T12:02:58.689Z,100614.19
2019-06-26T12:05:28.280Z,100617.28
2019-06-26T12:07:57.854Z,100613.66
2019-06-26T12:10:27.428Z,100617.03
2019-06-26T12:12:57.020Z,100616.20
2019-06-26T12:15:26.968Z,100606.89
2019-06-26T12:17:56.600Z,100607.77
2019-06-26T12:20:26.463Z,100597.05
2019-06-26T12:22:56.156Z,100598.78
2019-06-26T12:25:25.729Z,100601.80
2019-06-26T12:27:55.998Z,100607.65
2019-06-26T12:30:26.097Z,100602.32
2019-06-26T12:33:02.759Z,100608.01
2019-06-26T12:35:27.003Z,100602.37
2019-06-26T12:37:56.608Z,100596.73
2019-06-26T12:40:26.160Z,100593.63
2019-06-26T12:42:55.997Z,100597.49
2019-06-26T12:45:26.271Z,100590.23
2019-06-26T12:47:57.416Z,100598.92
2019-06-26T12:50:35.184Z,100599.84
2019-06-26T12:52:59.877Z,100595.55
2019-06-26T12:55:32.712Z,100598.11
2019-06-26T12:58:12.601Z,100594.92
2019-06-26T13:00:32.079Z,100592.21
2019-06-26T13:03:01.658Z,100585.12
2019-06-26T13:05:32.655Z,100584.20
2019-06-26T13:08:02.255Z,100588.80
2019-06-26T13:10:45.016Z,100571.91
2019-06-26T13:13:03.119Z,100579.53
2019-06-26T13:15:32.699Z,100571.90
2019-06-26T13:18:02.372Z,100573.19
2019-06-26T13:20:31.970Z,100573.21
2019-06-26T13:23:01.542Z,100571.94
2019-06-26T13:25:31.099Z,100566.94
2019-06-26T13:28:00.674Z,100569.36
2019-06-26T13:30:40.846Z,100563.86
2019-06-26T13:33:12.764Z,100568.27
2019-06-26T13:35:42.381Z,100570.59
2019-06-26T13:38:11.967Z,100565.52
2019-06-26T13:40:41.547Z,100570.56
2019-06-26T13:43:12.895Z,100569.05
2019-06-26T13:45:42.572Z,100568.59
2019-06-26T13:48:12.147Z,100568.94
2019-06-26T13:50:41.870Z,100553.38
2019-06-26T13:53:11.464Z,100558.80
2019-06-26T13:55:42.835Z,100561.39
2019-06-26T13:58:12.421Z,100557.42
2019-06-26T14:00:42.006Z,100558.19
2019-06-26T14:03:11.577Z,100557.78
2019-06-26T14:05:41.178Z,100549.39
2019-06-26T14:08:10.824Z,100545.83
2019-06-26T14:10:40.466Z,100552.36
2019-06-26T14:13:10.052Z,100546.77
2019-06-26T14:15:39.626Z,100545.11
2019-06-26T14:18:09.296Z,100537.30
2019-06-26T14:20:38.876Z,100534.88
2019-06-26T14:23:08.446Z,100542.07
2019-06-26T14:25:38.600Z,100536.17
2019-06-26T14:28:09.876Z,100529.91
2019-06-26T14:30:39.527Z,100531.02
2019-06-26T14:33:10.885Z,100534.33
2019-06-26T14:35:40.464Z,100532.25
2019-06-26T14:38:10.043Z,100535.20
2019-06-26T14:40:39.619Z,100529.03
2019-06-26T14:43:09.200Z,100515.25
2019-06-26T14:45:38.802Z,100520.74
2019-06-26T14:48:08.389Z,100520.48
2019-06-26T14:50:38.111Z,100532.37
2019-06-26T14:53:07.787Z,100529.92
2019-06-26T14:55:37.315Z,100525.53
2019-06-26T14:58:06.926Z,100520.70
2019-06-26T15:00:36.500Z,100523.72
2019-06-26T15:03:06.087Z,100528.54
2019-06-26T15:05:35.669Z,100529.66
2019-06-26T15:08:05.240Z,100525.78
2019-06-26T15:10:34.834Z,100528.83
2019-06-26T15:13:04.474Z,100517.73
2019-06-26T15:15:34.065Z,100526.84
2019-06-26T15:18:03.699Z,100516.07
2019-06-26T15:20:34.073Z,100517.78
2019-06-26T15:23:03.708Z,100517.69
2019-06-26T15:25:33.298Z,100516.59
2019-06-26T15:28:02.944Z,100506.38
2019-06-26T15:30:32.483Z,100503.06
2019-06-26T15:33:02.098Z,100499.84
2019-06-26T15:35:31.678Z,100499.58
2019-06-26T15:38:01.263Z,100499.30
2019-06-26T15:40:30.924Z,100489.71
2019-06-26T15:43:01.513Z,100487.03
2019-06-26T15:45:31.094Z,100484.37
2019-06-26T15:48:00.675Z,100483.17
2019-06-26T15:50:30.259Z,100484.87
2019-06-26T15:52:59.942Z,100496.29
2019-06-26T15:55:29.527Z,100490.66
2019-06-26T15:57:59.114Z,100483.91
2019-06-26T16:00:29.779Z,100477.41
2019-06-26T16:03:02.181Z,100473.64
2019-06-26T16:05:34.767Z,100470.13
2019-06-26T16:08:05.155Z,100466.86
2019-06-26T16:10:35.644Z,100466.97
2019-06-26T16:13:06.066Z,100464.57
2019-06-26T16:15:36.643Z,100466.59
2019-06-26T16:18:09.274Z,100460.70
2019-06-26T16:20:38.849Z,100461.91
2019-06-26T16:23:08.433Z,100462.63
2019-06-26T16:25:38.096Z,100458.38
2019-06-26T16:28:13.280Z,100461.28
2019-06-26T16:30:42.868Z,100456.69
2019-06-26T16:33:12.449Z,100456.00
2019-06-26T16:35:42.043Z,100458.72
2019-06-26T16:38:11.644Z,100452.91
2019-06-26T16:40:41.238Z,100448.05
2019-06-26T16:43:10.839Z,100457.27
2019-06-26T16:45:40.431Z,100451.36
2019-06-26T16:48:10.002Z,100451.50
2019-06-26T16:50:39.595Z,100445.61
2019-06-26T16:53:09.246Z,100440.77
2019-06-26T16:55:38.844Z,100432.26
2019-06-26T16:58:08.430Z,100444.73
2019-06-26T17:00:38.000Z,100437.36
2019-06-26T17:03:07.609Z,100431.37
2019-06-26T17:05:37.186Z,100434.94
2019-06-26T17:08:06.840Z,100432.61
2019-06-26T17:10:36.440Z,100438.86
2019-06-26T17:13:06.085Z,100441.50
2019-06-26T17:15:37.410Z,100440.75
2019-06-26T17:18:07.040Z,100440.21
2019-06-26T17:20:36.619Z,100449.88
2019-06-26T17:23:07.056Z,100445.52
2019-06-26T17:25:36.659Z,100443.74
2019-06-26T17:28:07.555Z,100444.67
2019-06-26T17:30:37.138Z,100449.52
2019-06-26T17:33:06.734Z,100442.39
2019-06-26T17:35:36.394Z,100444.72
2019-06-26T17:38:05.985Z,100441.16
2019-06-26T17:40:35.557Z,100436.66
2019-06-26T17:43:12.240Z,100443.19
2019-06-26T17:45:38.158Z,100435.06
2019-06-26T17:48:07.810Z,100437.85
2019-06-26T17:50:37.393Z,100435.27
2019-06-26T17:53:20.584Z,100428.77
2019-06-26T17:55:38.293Z,100435.15
2019-06-26T17:58:07.887Z,100430.23
2019-06-26T18:00:37.607Z,100440.72
2019-06-26T18:03:07.206Z,100435.06
2019-06-26T18:05:36.789Z,100446.47
2019-06-26T18:08:06.463Z,100442.02
2019-06-26T18:10:36.086Z,100443.02
2019-06-26T18:13:05.670Z,100443.38
2019-06-26T18:15:35.256Z,100445.78
2019-06-26T18:18:04.844Z,100440.75
2019-06-26T18:20:34.431Z,100445.48
2019-06-26T18:23:07.637Z,100442.48
2019-06-26T18:25:35.319Z,100447.59
2019-06-26T18:28:04.980Z,100444.53
2019-06-26T18:30:34.562Z,100441.83
2019-06-26T18:33:04.159Z,100440.31
2019-06-26T18:35:33.748Z,100447.91
2019-06-26T18:38:03.358Z,100453.34
2019-06-26T18:40:32.939Z,100447.79
2019-06-26T18:43:03.752Z,100460.27
2019-06-26T18:45:35.773Z,100456.08
2019-06-26T18:48:05.465Z,100457.44
2019-06-26T18:50:38.554Z,100457.42
2019-06-26T18:53:09.376Z,100465.53
2019-06-26T18:55:38.958Z,100472.10
2019-06-26T18:58:08.626Z,100469.56
2019-06-26T19:00:38.226Z,100470.55
2019-06-26T19:03:09.072Z,100466.97
2019-06-26T19:05:38.605Z,100470.34
2019-06-26T19:08:08.185Z,100468.47
2019-06-26T19:10:37.803Z,100482.61
2019-06-26T19:13:07.370Z,100484.94
2019-06-26T19:15:37.034Z,100474.45
2019-06-26T19:18:06.613Z,100478.82
2019-06-26T19:20:37.243Z,100481.80
2019-06-26T19:23:06.765Z,100484.13
2019-06-26T19:25:36.359Z,100488.37
2019-06-26T19:28:06.013Z,100486.16
2019-06-26T19:30:35.608Z,100490.52
2019-06-26T19:33:05.600Z,100493.81
2019-06-26T19:35:35.181Z,100503.48
2019-06-26T19:38:04.779Z,100500.03
2019-06-26T19:40:34.386Z,100503.30
2019-06-26T19:43:04.044Z,100507.45
2019-06-26T19:45:33.659Z,100502.98
2019-06-26T19:48:03.280Z,100513.06
2019-06-26T19:50:32.871Z,100505.77
2019-06-26T19:53:02.536Z,100519.28
2019-06-26T19:55:33.181Z,100519.23
2019-06-26T19:58:02.767Z,100521.92
2019-06-26T20:00:32.350Z,100527.84
2019-06-26T20:03:01.935Z,100529.75
2019-06-26T20:05:31.521Z,100534.12
2019-06-26T20:08:01.121Z,100542.88
2019-06-26T20:10:30.705Z,100547.89
2019-06-26T20:13:01.809Z,100549.44
2019-06-26T20:15:31.383Z,100551.92
2019-06-26T20:18:04.121Z,100546.98
2019-06-26T20:20:32.280Z,100552.61
2019-06-26T20:23:01.870Z,100545.66
2019-06-26T20:25:31.460Z,100546.49
2019-06-26T20:28:01.048Z,100556.46
2019-06-26T20:30:33.897Z,100555.06
2019-06-26T20:33:03.480Z,100552.73
2019-06-26T20:35:33.057Z,100558.21
2019-06-26T20:38:02.863Z,100562.03
2019-06-26T20:40:32.451Z,100563.49
2019-06-26T20:43:02.067Z,100566.84
2019-06-26T20:45:31.720Z,100575.00
2019-06-26T20:48:01.300Z,100570.48
2019-06-26T20:50:30.890Z,100585.19
2019-06-26T20:53:00.632Z,100584.48
2019-06-26T20:55:30.726Z,100584.72
2019-06-26T20:58:00.318Z,100592.11
2019-06-26T21:00:29.920Z,100590.28
2019-06-26T21:03:00.614Z,100592.81
2019-06-26T21:05:30.199Z,100593.37
2019-06-26T21:07:59.784Z,100599.05
2019-06-26T21:10:29.374Z,100599.84
2019-06-26T21:12:58.986Z,100597.61
2019-06-26T21:15:28.596Z,100607.88
2019-06-26T21:17:58.186Z,100598.41
2019-06-26T21:20:29.299Z,100605.05
2019-06-26T21:22:58.899Z,100605.73
2019-06-26T21:25:28.484Z,100609.89
2019-06-26T21:27:58.056Z,100608.35
2019-06-26T21:30:29.196Z,100605.83
2019-06-26T21:32:58.787Z,100611.52
2019-06-26T21:35:28.376Z,100606.26
2019-06-26T21:37:59.500Z,100614.02
2019-06-26T21:40:29.109Z,100607.91
2019-06-26T21:43:01.290Z,100608.69
2019-06-26T21:45:30.862Z,100606.29
2019-06-26T21:48:00.456Z,100618.85
2019-06-26T21:50:30.045Z,100612.91
2019-06-26T21:53:01.258Z,100621.75
2019-06-26T21:55:34.828Z,100619.33
2019-06-26T21:58:02.249Z,100619.52
2019-06-26T22:00:33.487Z,100629.58
2019-06-26T22:03:03.137Z,100629.48
2019-06-26T22:05:32.875Z,100627.27
2019-06-26T22:08:04.636Z,100632.19
2019-06-26T22:10:34.217Z,100632.20
2019-06-26T22:13:03.877Z,100638.55
2019-06-26T22:15:33.632Z,100640.95
2019-06-26T22:18:03.194Z,100637.75
2019-06-26T22:20:34.015Z,100633.80
2019-06-26T22:23:03.650Z,100646.17
2019-06-26T22:25:41.143Z,100639.76
2019-06-26T22:28:04.598Z,100643.18
2019-06-26T22:30:34.185Z,100638.11
2019-06-26T22:33:03.896Z,100646.39
2019-06-26T22:35:33.837Z,100654.18
2019-06-26T22:38:03.501Z,100651.48
2019-06-26T22:40:33.088Z,100654.06
2019-06-26T22:43:03.157Z,100654.09
2019-06-26T22:45:32.806Z,100658.17
2019-06-26T22:48:03.419Z,100657.61
2019-06-26T22:50:33.038Z,100656.72
2019-06-26T22:53:02.590Z,100657.44
2019-06-26T22:55:32.254Z,100662.61
2019-06-26T22:58:01.844Z,100659.64
2019-06-26T23:00:31.418Z,100657.73
2019-06-26T23:03:01.018Z,100658.17
2019-06-26T23:05:30.614Z,100662.69
2019-06-26T23:08:00.204Z,100665.73
2019-06-26T23:10:29.802Z,100670.73
2019-06-26T23:12:59.383Z,100660.63
2019-06-26T23:15:28.979Z,100655.79
2019-06-26T23:17:58.561Z,100670.48
2019-06-26T23:20:28.147Z,100667.23
2019-06-26T23:22:57.736Z,100662.81
2019-06-26T23:25:27.323Z,100673.86
2019-06-26T23:27:56.904Z,100668.60
2019-06-26T23:30:27.154Z,100670.75
2019-06-26T23:32:56.781Z,100664.44
2019-06-26T23:35:26.354Z,100668.08
2019-06-26T23:37:56.015Z,100669.78
2019-06-26T23:40:25.601Z,100679.05
2019-06-26T23:42:56.309Z,100668.84
2019-06-26T23:45:25.910Z,100673.86
2019-06-26T23:47:57.654Z,100674.32
2019-06-26T23:50:27.242Z,100679.03
2019-06-26T23:52:56.845Z,100679.03
2019-06-26T23:55:26.427Z,100691.09
2019-06-26T23:57:59.321Z,100690.95
